Weather observations for the past three days for
Boone Municipal
Imperial (Metric)
Date Time (cdt) Wind (mph) Vis. (mi.) Weather Sky Cond. Temperature (ºF) Relative Humidity Wind Chill (°F) Heat Index (°F) Pressure Precipitation (in)
Air Dwpt 6 hour altimeter (in) sea level (mb) 1 hr 3 hr 6 hr
Max. Min.
02 19:55 SW 8 G 16 10.00 Fair CLR 60.8 26.6 27% 29.95 0.0
02 19:35 SW 7 10.00 Fair CLR 60.8 26.6 27% 29.96 0.0
02 19:15 SW 10 10.00 Fair CLR 62.6 24.8 24% 29.96 0.0
02 18:55 SW 12 10.00 Fair CLR 62.6 24.8 24% 29.96 0.0
02 18:35 SW 10 10.00 Fair CLR 62.6 24.8 24% 29.97 0.0
02 18:15 Vrbl 5 G 12 10.00 Fair CLR 62.6 24.8 24% 29.98 0.0
02 17:55 SW 13 10.00 Fair CLR 64.4 24.8 22% 29.98 0.0
02 17:35 W 10 10.00 Fair CLR 62.6 24.8 24% 29.99 0.0
02 17:15 SW 10 10.00 Fair CLR 64.4 24.8 22% 29.99 0.0
02 16:55 W 8 G 17 10.00 Fair CLR 62.6 24.8 24% 30 0.0
02 16:35 W 10 G 18 10.00 Fair CLR 62.6 24.8 24% 30.01 0.0
02 16:15 W 9 10.00 Fair CLR 62.6 26.6 25% 30.01 0.0
02 15:55 W 14 10.00 Fair CLR 62.6 26.6 25% 30.02 0.0
02 15:35 NW 6 G 14 10.00 Fair CLR 62.6 26.6 25% 30.03 0.0
02 15:15 SW 10 10.00 Fair CLR 60.8 26.6 27% 30.04 0.0
02 14:35 Vrbl 3 G 14 10.00 Fair CLR 60.8 24.8 25% 30.06 0.0
02 14:15 W 8 10.00 Fair CLR 59 26.6 29% 30.07 0.0
02 13:55 W 9 G 15 10.00 Fair CLR 59 24.8 27% 30.08 0.0
02 13:35 W 8 G 15 10.00 Fair CLR 57.2 24.8 29% 30.09 0.0
02 13:15 SW 10 10.00 Fair CLR 57.2 24.8 29% 30.09 0.0
02 12:55 W 10 10.00 Fair CLR 57.2 24.8 29% 30.1 0.0
02 12:35 Vrbl 3 G 13 10.00 Fair CLR 55.4 24.8 31% 30.11 0.0
02 12:15 NW 12 10.00 Fair CLR 55.4 26.6 33% 30.11 0.0
02 11:55 Vrbl 7 G 16 10.00 Fair CLR 55.4 24.8 31% 30.12 0.0
02 11:35 Vrbl 6 G 14 10.00 Fair CLR 53.6 24.8 33% 30.12 0.0
02 11:15 Calm 10.00 Fair CLR 53.6 24.8 33% 30.13 0.0
02 10:55 Vrbl 5 G 12 7.00 Fair CLR 51.8 24.8 35% 30.13 0.0
02 10:35 W 5 G 12 10.00 Fair CLR 51.8 24.8 35% 30.13 0.0
02 10:15 NW 12 10.00 Fair CLR 51.8 24.8 35% 30.13 0.0
02 09:55 Vrbl 5 10.00 Fair CLR 51.8 26.6 38% 30.13 0.0
02 09:35 W 7 10.00 Fair CLR 50 26.6 40% 48 30.14 0.0
02 09:15 NW 6 10.00 Fair CLR 50 26.6 40% 48 30.14 0.0
02 08:55 Vrbl 5 10.00 Fair CLR 48.2 26.6 43% 47 30.14 0.0
02 08:35 Calm 10.00 Fair CLR 46.4 28.4 50% 30.14 0.0
02 08:20 Calm 10.00 Fair CLR 44.6 30.2 57% 30.14 0.0
02 07:35 N 5 10.00 Fair CLR 39.2 30.2 70% 36 30.13 0.0
02 07:15 Calm 10.00 Fair CLR 37.4 28.4 70% 30.13 0.0
02 06:55 NW 5 10.00 Fair CLR 37.4 26.6 65% 34 30.13 0.0
02 06:35 NW 5 10.00 Fair CLR 37.4 26.6 65% 34 30.12 0.0
02 06:15 NW 5 10.00 Fair CLR 37.4 26.6 65% 34 30.12 0.0
02 05:55 N 5 10.00 Fair CLR 35.6 26.6 70% 32 30.11 0.0
02 05:35 NW 5 10.00 Fair CLR 35.6 26.6 70% 32 30.11 0.0
02 05:15 NW 5 10.00 Fair CLR 37.4 26.6 65% 34 30.11 0.0
02 04:55 N 5 10.00 Fair CLR 37.4 26.6 65% 34 30.11 0.0
02 04:35 N 5 10.00 Fair CLR 37.4 26.6 65% 34 30.11 0.0
02 04:15 NW 5 10.00 Fair CLR 37.4 26.6 65% 34 30.11 0.0
02 03:55 N 5 10.00 Fair CLR 37.4 28.4 70% 34 30.1 0.0
02 03:35 N 6 10.00 Fair CLR 37.4 26.6 65% 33 30.1 0.0
02 03:15 N 6 10.00 Fair CLR 37.4 28.4 70% 33 30.1 0.0
02 02:55 N 6 10.00 Fair CLR 39.2 28.4 65% 36 30.1 0.0
02 02:35 N 6 10.00 NULL NULL 37.4 28.4 70% 33 30.1 0.0
02 02:15 N 6 10.00 A Few Clouds FEW070 37.4 28.4 70% 33 30.11 0.0
02 01:55 N 5 10.00 NULL NULL 39.2 28.4 65% 36 30.11 0.0
02 01:35 N 6 10.00 NULL NULL 37.4 28.4 70% 33 30.11 0.0
02 01:15 N 6 10.00 Fair CLR 39.2 28.4 65% 36 30.11 0.0
02 00:55 N 6 10.00 NULL NULL 39.2 28.4 65% 36 30.11 0.0
02 00:35 N 5 10.00 NULL NULL 41 28.4 61% 38 30.11 0.0
02 00:15 N 5 10.00 Fair CLR 42.8 28.4 57% 41 30.1 0.0
01 23:55 N 3 10.00 NULL NULL 41 30.2 66% 30.1 0.0
01 23:35 N 6 10.00 NULL NULL 42.8 30.2 61% 40 30.1 0.0
01 23:15 N 7 10.00 Mostly Cloudy FEW065 BKN075 42.8 30.2 61% 39 30.09 0.0
01 22:55 N 6 10.00 Overcast OVC075 42.8 30.2 61% 40 30.09 0.0
01 22:35 N 7 10.00 Mostly Cloudy FEW060 BKN075 44.6 30.2 57% 41 30.09 0.0
01 22:15 NW 6 10.00 NULL NULL 46.4 28.4 50% 44 30.09 0.0
01 21:55 N 3 10.00 NULL NULL 46.4 28.4 50% 30.08 0.0
01 21:35 NW 5 10.00 Overcast BKN080 OVC090 46.4 30.2 53% 45 30.08 0.0
01 21:15 N 6 10.00 Overcast BKN080 OVC090 46.4 30.2 53% 44 30.07 0.0
01 20:35 N 6 10.00 Overcast FEW070 OVC080 46.4 30.2 53% 44 30.06 0.0
01 20:15 NW 7 10.00 Overcast OVC085 50 28.4 43% 48 30.05 0.0
01 19:55 NW 7 10.00 Overcast OVC085 50 30.2 47% 48 30.04 0.0
01 19:35 N 8 10.00 Mostly Cloudy FEW080 BKN090 50 28.4 43% 47 30.04 0.0
01 19:15 N 10 G 16 10.00 Partly Cloudy FEW060 SCT080 50 28.4 43% 46 30.03 0.0
01 18:55 N 13 10.00 Overcast OVC080 53.6 30.2 41% 30.03 0.0
01 18:35 N 12 10.00 Overcast OVC085 53.6 30.2 41% 30.03 0.0
01 18:15 N 10 G 18 10.00 Overcast FEW065 OVC085 51.8 30.2 44% 30.03 0.0
01 17:55 N 10 G 18 10.00 Overcast FEW060 OVC090 53.6 30.2 41% 30.03 0.0
01 17:35 N 13 10.00 Mostly Cloudy FEW060 FEW080 BKN090 53.6 30.2 41% 30.03 0.0
01 17:15 N 13 10.00 Mostly Cloudy FEW060 BKN080 BKN095 53.6 30.2 41% 30.03 0.0
01 16:55 N 14 10.00 Partly Cloudy FEW060 SCT080 53.6 30.2 41% 30.02 0.0
01 16:35 N 15 10.00 Mostly Cloudy SCT065 BKN075 BKN085 55.4 32 41% 30.02 0.0
01 16:15 N 13 10.00 Overcast SCT060 OVC075 53.6 30.2 41% 30.03 0.0
01 15:55 N 10 G 21 10.00 NULL NULL 53.6 30.2 41% 30.03 0.0
01 15:35 N 12 10.00 Mostly Cloudy FEW060 BKN080 BKN090 53.6 28.4 38% 30.03 0.0
01 15:15 N 13 10.00 Mostly Cloudy BKN060 BKN075 BKN085 53.6 30.2 41% 30.03 0.0
01 14:55 N 14 10.00 Mostly Cloudy BKN060 BKN075 BKN090 51.8 30.2 44% 30.03 0.0
01 14:35 N 9 G 15 10.00 Mostly Cloudy FEW065 SCT075 BKN085 53.6 30.2 41% 30.03 0.0
01 14:15 N 12 G 21 10.00 Overcast BKN065 BKN075 OVC085 51.8 30.2 44% 30.03 0.0
01 13:55 N 9 10.00 Overcast BKN065 OVC085 53.6 32 44% 30.03 0.0
01 13:35 N 10 10.00 Mostly Cloudy FEW055 FEW070 BKN085 55.4 32 41% 30.03 0.0
01 13:15 N 10 10.00 Mostly Cloudy FEW055 SCT080 BKN090 53.6 33.8 47% 30.03 0.0
01 12:55 N 15 10.00 Mostly Cloudy FEW055 SCT065 BKN075 51.8 32 47% 30.03 0.0
01 12:35 N 13 10.00 Partly Cloudy FEW049 SCT075 55.4 35.6 47% 30.03 0.0
01 12:15 N 10 G 21 10.00 Mostly Cloudy FEW049 SCT065 BKN075 51.8 32 47% 30.03 0.0
01 11:55 N 10 10.00 Mostly Cloudy FEW045 SCT050 BKN065 51.8 33.8 50% 30.03 0.0
01 11:35 N 10 G 17 10.00 Mostly Cloudy FEW037 SCT043 BKN065 53.6 35.6 51% 30.03 0.0
01 11:15 N 14 10.00 Mostly Cloudy FEW030 SCT035 BKN049 51.8 37.4 58% 30.02 0.0
01 10:55 N 10 G 16 10.00 Mostly Cloudy SCT029 BKN070 51.8 41 67% 30.02 0.0
01 10:35 N 8 G 15 10.00 Partly Cloudy SCT070 50 41 71% 47 30.02 0.0
01 10:15 N 8 10.00 Mostly Cloudy BKN060 48.2 39.2 71% 45 30.02 0.0
01 09:55 N 10 10.00 Partly Cloudy FEW055 SCT065 SCT085 48.2 39.2 71% 44 30.02 0.0
01 09:15 N 13 10.00 Partly Cloudy SCT080 48.2 37.4 66% 43 30.02 0.0
01 08:55 N 10 10.00 Mostly Cloudy BKN085 48.2 37.4 66% 44 30.02 0.0
01 08:35 N 10 10.00 Mostly Cloudy FEW060 BKN085 46.4 37.4 71% 42 30.02 0.0
01 08:15 N 8 10.00 Mostly Cloudy BKN085 46.4 35.6 66% 43 30.02 0.0
01 07:55 N 7 10.00 Fair CLR 44.6 35.6 71% 41 30.02 0.0
01 07:35 N 6 10.00 Fair CLR 41 33.8 76% 38 30.02 0.0
01 07:15 NW 5 10.00 Mostly Cloudy FEW055 BKN090 41 32 70% 38 30.02 0.0
01 06:55 W 8 10.00 Overcast SCT055 OVC090 41 32 70% 36 30.02 0.0
01 06:35 W 6 10.00 Overcast FEW055 SCT065 OVC095 39.2 32 75% 36 30.01 0.0
01 06:15 W 5 10.00 Overcast FEW055 SCT065 OVC085 37.4 33.8 87% 34 30.01 0.0
01 05:55 SW 7 10.00 Overcast SCT060 SCT070 OVC090 41 32 70% 37 30.01 0.0
01 05:35 W 7 10.00 Mostly Cloudy BKN060 39.2 32 75% 35 30.01 0.0
01 05:15 W 6 10.00 NULL NULL 37.4 32 81% 33 30.01 0.0
01 04:55 W 5 10.00 NULL NULL 39.2 30.2 70% 36 30.01 0.0
01 04:35 W 6 10.00 NULL NULL 39.2 32 75% 36 30.01 0.0
01 04:15 W 6 10.00 Mostly Cloudy FEW075 BKN085 39.2 32 75% 36 30.01 0.0
01 03:55 W 8 10.00 Mostly Cloudy BKN080 BKN090 39.2 30.2 70% 34 30.01 0.0
01 03:35 SW 7 10.00 Overcast BKN080 OVC090 39.2 30.2 70% 35 30.01 0.0
01 03:15 SW 7 10.00 Overcast SCT060 OVC080 41 32 70% 37 30.02 0.0
01 02:55 W 5 10.00 Overcast FEW060 OVC075 41 30.2 66% 38 30.02 0.0
01 02:35 NW 5 10.00 Overcast FEW055 SCT070 OVC080 41 30.2 66% 38 30.02 0.0
01 02:15 Calm 10.00 Overcast FEW049 BKN065 OVC075 41 30.2 66% 30.03 0.0
01 01:55 W 7 10.00 NULL NULL 41 32 70% 37 30.03 0.0
01 01:35 W 7 10.00 Overcast OVC070 41 32 70% 37 30.03 0.0
01 01:15 W 7 10.00 NULL NULL 39.2 30.2 70% 35 30.03 0.0
01 00:55 SW 7 10.00 Partly Cloudy FEW070 FEW085 SCT120 41 30.2 66% 37 30.03 0.0
01 00:35 SW 7 10.00 Partly Cloudy FEW085 SCT120 41 30.2 66% 37 30.03 0.0
01 00:15 W 6 10.00 Partly Cloudy SCT085 42.8 30.2 61% 40 30.03 0.0
30 23:55 W 6 10.00 Fair CLR 41 30.2 66% 38 30.04 0.0
30 23:35 SW 7 10.00 Fair CLR 41 30.2 66% 37 30.03 0.0
30 23:15 SW 6 10.00 A Few Clouds FEW080 42.8 30.2 61% 40 30.03 0.0
30 22:55 W 6 10.00 Partly Cloudy SCT080 42.8 30.2 61% 40 30.04 0.0
30 22:35 W 6 10.00 Mostly Cloudy BKN080 44.6 28.4 53% 42 30.04 0.0
30 22:15 W 6 10.00 Fair CLR 46.4 28.4 50% 44 30.05 0.0
30 21:55 W 6 10.00 Fair CLR 46.4 28.4 50% 44 30.05 0.0
30 21:35 NW 5 10.00 Mostly Cloudy SCT070 BKN075 48.2 28.4 46% 47 30.04 0.0
30 20:55 NW 7 10.00 Mostly Cloudy BKN065 BKN075 BKN090 46.4 26.6 46% 43 30.03 0.0
30 20:35 NW 6 10.00 A Few Clouds FEW100 46.4 26.6 46% 44 30.03 0.0
30 20:15 N 7 10.00 Mostly Cloudy SCT075 BKN100 46.4 28.4 50% 43 30.02 0.0
30 19:55 N 13 10.00 Overcast SCT075 OVC090 50 26.6 40% 46 30.02 0.0
30 19:35 N 14 10.00 Overcast FEW065 SCT080 OVC090 50 26.6 40% 45 30.02 0.0
30 19:15 NW 14 G 21 10.00 Overcast FEW065 OVC085 51.8 26.6 38% 30.02 0.0
30 18:55 NW 16 10.00 Overcast OVC085 50 26.6 40% 45 30.01 0.0
30 18:35 N 17 10.00 Overcast OVC085 51.8 26.6 38% 30.01 0.0
30 18:15 N 18 10.00 Overcast OVC080 51.8 26.6 38% 30.01 0.0
30 17:55 N 21 G 28 10.00 Overcast and Breezy SCT070 OVC085 51.8 26.6 38% 30.01 0.0
30 17:35 N 20 10.00 Overcast BKN070 OVC080 51.8 26.6 38% 30.01 0.0
30 17:15 N 21 10.00 Overcast and Breezy OVC070 53.6 26.6 35% 30 0.0
30 16:55 N 14 G 22 10.00 Overcast OVC075 53.6 26.6 35% 30 0.0
30 16:35 N 20 G 26 10.00 Mostly Cloudy BKN075 53.6 26.6 35% 30 0.0
30 16:15 NW 17 G 26 10.00 Mostly Cloudy BKN075 53.6 24.8 33% 30 0.0
30 15:55 NW 20 G 25 10.00 Mostly Cloudy BKN070 53.6 26.6 35% 30 0.0
30 15:35 N 20 G 28 10.00 Mostly Cloudy BKN065 BKN075 53.6 26.6 35% 30 0.0
30 15:15 N 17 G 26 10.00 Mostly Cloudy BKN060 55.4 30.2 38% 30 0.0
30 14:55 N 9 G 22 10.00 Mostly Cloudy BKN055 53.6 32 44% 30.01 0.0
30 14:35 N 16 10.00 Mostly Cloudy SCT047 BKN055 BKN070 51.8 32 47% 30.01 0.0
30 14:15 N 15 G 22 10.00 Mostly Cloudy FEW043 SCT049 BKN070 51.8 35.6 54% 30.02 0.0
30 13:55 NW 10 10.00 Mostly Cloudy BKN065 BKN080 BKN095 48.2 33.8 58% 44 30.03 0.0
30 13:35 NW 12 10.00 Overcast OVC060 48.2 37.4 66% 44 30.04 0.0
30 13:15 NW 13 10.00 Overcast OVC060 48.2 35.6 62% 43 30.05 0.0
30 12:55 NW 10 G 16 10.00 Overcast OVC060 46.4 37.4 71% 42 30.05 0.0
30 12:35 NW 13 G 20 10.00 Overcast OVC055 46.4 37.4 71% 41 30.05 0.0
30 12:15 N 13 10.00 Overcast OVC050 46.4 35.6 66% 41 30.05 0.0
30 11:55 N 12 G 20 10.00 Overcast OVC049 44.6 35.6 71% 39 30.05 0.0
30 11:35 N 16 10.00 Overcast BKN044 OVC055 44.6 35.6 71% 38 30.05 0.0
30 11:15 N 15 G 23 10.00 Overcast FEW045 BKN055 OVC065 48.2 35.6 62% 43 30.05 0.0
30 10:55 N 15 G 21 10.00 Overcast FEW046 OVC060 46.4 35.6 66% 41 30.04 0.0
30 10:35 N 16 10.00 Overcast BKN045 BKN050 OVC060 46.4 35.6 66% 40 30.04 0.0
30 10:15 N 17 10.00 Overcast BKN042 OVC049 46.4 35.6 66% 40 30.03 0.0
30 09:55 N 17 G 24 10.00 Overcast OVC039 44.6 33.8 66% 38 30.03 0.0
30 09:35 N 18 G 25 10.00 Overcast BKN038 OVC060 46.4 32 57% 40 30.03 0.0
30 09:15 N 18 10.00 Overcast OVC039 46.4 33.8 62% 40 30.02 0.0
30 08:55 NE 18 10.00 Overcast OVC040 46.4 32 57% 40 30.02 0.0
30 08:35 N 15 10.00 Overcast OVC041 46.4 33.8 62% 41 30.02 0.0
30 08:15 N 15 10.00 Overcast OVC043 46.4 35.6 66% 41 30.02 0.0
30 07:55 NW 13 10.00 Overcast OVC044 48.2 41 76% 43 30.02 0.0
30 07:35 W 6 10.00 Overcast BKN043 BKN050 OVC120 48.2 42.8 82% 46 30.02 0.0
30 07:15 Calm 10.00 Overcast OVC041 48.2 41 76% 30 0.0
30 06:55 W 5 10.00 Overcast BKN042 OVC048 48.2 41 76% 47 30.01 0.0
30 06:35 SW 6 10.00 Overcast BKN048 OVC055 48.2 41 76% 46 30 0.0
30 06:15 Calm 10.00 Overcast FEW045 OVC050 46.4 41 82% 30 0.0
30 05:55 Calm 10.00 Overcast BKN055 OVC070 46.4 39.2 76% 30 0.0
30 05:35 Calm 10.00 Overcast FEW060 BKN075 OVC085 46.4 39.2 76% 30 0.0
30 05:15 N 5 10.00 Overcast OVC085 46.4 39.2 76% 45 29.99 0.0
30 04:55 NW 6 10.00 Overcast FEW065 BKN080 OVC095 48.2 37.4 66% 46 30.01 0.0
30 04:35 W 7 10.00 Mostly Cloudy FEW046 SCT055 BKN065 48.2 37.4 66% 46 30.02 0.0
30 04:15 W 8 10.00 Overcast FEW043 OVC060 46.4 37.4 71% 43 30.03 0.0
30 03:55 W 7 10.00 Overcast OVC060 46.4 37.4 71% 43 30.03 0.0
30 03:35 W 6 10.00 Overcast SCT060 OVC100 44.6 35.6 71% 42 30.02 0.0
30 03:15 SW 7 10.00 Overcast OVC110 46.4 33.8 62% 43 30.01 0.0
30 02:55 SW 7 10.00 Mostly Cloudy SCT075 BKN110 46.4 33.8 62% 43 30.02 0.0
30 02:35 SW 7 10.00 Overcast BKN075 OVC085 46.4 33.8 62% 43 30.02 0.0
30 02:15 SW 7 10.00 Overcast SCT070 OVC085 46.4 33.8 62% 43 30.03 0.0
30 01:55 SW 7 10.00 Overcast SCT075 OVC090 48.2 33.8 58% 46 30.03 0.0
30 01:35 SW 6 10.00 Mostly Cloudy SCT075 BKN085 46.4 33.8 62% 44 30.03 0.0
30 01:15 SW 5 10.00 Overcast BKN075 OVC090 46.4 32 57% 45 30.03 0.0
30 00:55 SW 6 10.00 Partly Cloudy FEW080 SCT095 46.4 33.8 62% 44 30.04 0.0
30 00:35 SW 6 10.00 Mostly Cloudy BKN095 46.4 32 57% 44 30.04 0.0
30 00:20 SW 7 10.00 Overcast OVC100 46.4 32 57% 43 30.04 0.0
29 23:30 SW 6 10.00 Overcast OVC070 50 28.4 43% 48 30.04 0.0
29 23:15 SW 6 10.00 Overcast BKN075 OVC100 50 28.4 43% 48 30.05 0.0
29 22:55 SW 6 10.00 Overcast OVC100 50 28.4 43% 48 30.05 0.0
29 22:35 SW 5 10.00 Overcast FEW080 BKN100 OVC120 50 28.4 43% 49 30.05 0.0
29 22:15 SW 6 10.00 Mostly Cloudy FEW080 BKN110 50 30.2 47% 48 30.05 0.0
29 21:55 SW 5 10.00 Mostly Cloudy SCT100 BKN120 51.8 26.6 38% 30.05 0.0
29 21:35 SW 3 10.00 Fair CLR 51.8 28.4 41% 30.04 0.0
29 21:15 Calm 10.00 Fair CLR 51.8 30.2 44% 30.04 0.0
29 20:55 Calm 10.00 Fair CLR 50 30.2 47% 30.04 0.0
29 20:35 Calm 10.00 Partly Cloudy SCT090 51.8 28.4 41% 30.04 0.0
Date Time (cdt) Wind (mph) Vis. (mi.) Weather Sky Cond. Air Dwpt Max. Min. Relative Humidity Wind Chill (°F) Heat Index (°F) altimeter (in) sea level (mb) 1 hr 3 hr 6 hr
6 hour
Temperature (ºF) Pressure Precipitation (in)